createdAt,value
2017-12-12T00:00:07.930Z,0
2017-12-12T00:01:17.876Z,0
2017-12-12T00:02:27.582Z,0
2017-12-12T00:03:37.541Z,0
2017-12-12T00:04:46.718Z,0
2017-12-12T00:05:56.418Z,0
2017-12-12T00:07:06.379Z,0
2017-12-12T00:08:16.067Z,0
2017-12-12T00:09:25.758Z,0
2017-12-12T00:10:35.188Z,0
2017-12-12T00:11:44.927Z,0
2017-12-12T00:12:54.619Z,0
2017-12-12T00:14:04.366Z,0
2017-12-12T00:15:14.319Z,0
2017-12-12T00:16:23.761Z,0
2017-12-12T00:17:33.459Z,0
2017-12-12T00:18:43.421Z,0
2017-12-12T00:19:53.110Z,0
2017-12-12T00:21:03.372Z,0
2017-12-12T00:22:13.325Z,0
2017-12-12T00:23:23.018Z,0
2017-12-12T00:24:32.450Z,0
2017-12-12T00:25:42.150Z,0
2017-12-12T00:26:51.848Z,0
2017-12-12T00:28:01.789Z,0
2017-12-12T00:29:11.468Z,0
2017-12-12T00:30:21.153Z,0
2017-12-12T00:31:30.843Z,0
2017-12-12T00:32:40.529Z,0
2017-12-12T00:33:50.214Z,0
2017-12-12T00:35:00.169Z,0
2017-12-12T00:36:09.586Z,0
2017-12-12T00:37:19.013Z,0
2017-12-12T00:38:28.955Z,0
2017-12-12T00:39:38.692Z,0
2017-12-12T00:40:48.654Z,0
2017-12-12T00:41:58.611Z,0
2017-12-12T00:43:08.306Z,0
2017-12-12T00:44:18.000Z,0
2017-12-12T00:45:27.686Z,0
2017-12-12T00:46:37.127Z,0
2017-12-12T00:47:47.081Z,0
2017-12-12T00:48:56.523Z,0
2017-12-12T00:50:06.489Z,0
2017-12-12T00:51:16.442Z,0
2017-12-12T00:52:26.399Z,0
2017-12-12T00:53:35.831Z,0
2017-12-12T00:54:45.780Z,0
2017-12-12T00:55:55.210Z,0
2017-12-12T00:57:05.166Z,0
2017-12-12T00:58:14.591Z,0
2017-12-12T00:59:24.287Z,0
2017-12-12T01:00:33.968Z,0
2017-12-12T01:01:43.908Z,0
2017-12-12T01:02:53.353Z,0
2017-12-12T01:04:03.313Z,0
2017-12-12T01:05:13.260Z,0
2017-12-12T01:06:22.955Z,0
2017-12-12T01:07:32.648Z,0
2017-12-12T01:08:42.340Z,0
2017-12-12T01:09:52.078Z,0
2017-12-12T01:11:02.020Z,0
2017-12-12T01:12:11.741Z,0
2017-12-12T01:13:21.173Z,0
2017-12-12T01:14:30.858Z,0
2017-12-12T01:15:40.794Z,0
2017-12-12T01:16:50.747Z,0
2017-12-12T01:18:00.426Z,0
2017-12-12T01:19:09.853Z,0
2017-12-12T01:20:19.571Z,0
2017-12-12T01:21:29.514Z,0
2017-12-12T01:22:39.230Z,0
2017-12-12T01:23:49.232Z,0
2017-12-12T01:24:58.664Z,0
2017-12-12T01:26:08.627Z,0
2017-12-12T01:27:18.318Z,0
2017-12-12T01:28:28.005Z,0
2017-12-12T01:29:37.686Z,0
2017-12-12T01:30:47.630Z,0
2017-12-12T01:31:57.573Z,0
2017-12-12T01:33:07.527Z,0
2017-12-12T01:34:17.465Z,0
2017-12-12T01:35:27.426Z,0
2017-12-12T01:36:37.130Z,0
2017-12-12T01:37:46.830Z,0
2017-12-12T01:38:56.259Z,0
2017-12-12T01:40:06.227Z,0
2017-12-12T01:41:15.931Z,0
2017-12-12T01:42:25.871Z,0
2017-12-12T01:43:35.815Z,0
2017-12-12T01:44:44.988Z,0
2017-12-12T01:45:54.674Z,0
2017-12-12T01:47:04.359Z,0
2017-12-12T01:48:13.786Z,0
2017-12-12T01:49:23.233Z,0
2017-12-12T01:50:33.183Z,0
2017-12-12T01:51:42.624Z,0
2017-12-12T01:52:52.576Z,0
2017-12-12T01:54:02.269Z,0
2017-12-12T01:55:12.217Z,0
2017-12-12T01:56:21.952Z,0
2017-12-12T01:57:31.388Z,0
2017-12-12T01:58:41.344Z,0
2017-12-12T01:59:51.290Z,0
2017-12-12T02:01:00.982Z,0
2017-12-12T02:02:10.416Z,0
2017-12-12T02:03:20.097Z,0
2017-12-12T02:04:30.056Z,0
2017-12-12T02:05:40.017Z,0
2017-12-12T02:06:49.955Z,0
2017-12-12T02:07:59.131Z,0
2017-12-12T02:09:09.079Z,0
2017-12-12T02:10:18.514Z,0
2017-12-12T02:11:28.203Z,0
2017-12-12T02:12:37.899Z,0
2017-12-12T02:13:47.838Z,0
2017-12-12T02:14:57.276Z,0
2017-12-12T02:16:06.973Z,0
2017-12-12T02:17:16.915Z,0
2017-12-12T02:18:26.592Z,0
2017-12-12T02:19:35.770Z,0
2017-12-12T02:20:45.455Z,0
2017-12-12T02:21:55.151Z,0
2017-12-12T02:23:04.839Z,0
2017-12-12T02:24:14.777Z,0
2017-12-12T02:25:24.721Z,0
2017-12-12T02:26:34.670Z,0
2017-12-12T02:27:44.358Z,0
2017-12-12T02:28:54.045Z,0
2017-12-12T02:30:04.014Z,0
2017-12-12T02:31:13.237Z,0
2017-12-12T02:32:22.411Z,0
2017-12-12T02:33:32.114Z,0
2017-12-12T02:34:42.074Z,0
2017-12-12T02:35:51.507Z,0
2017-12-12T02:37:00.942Z,0
2017-12-12T02:38:10.906Z,0
2017-12-12T02:39:20.604Z,0
2017-12-12T02:40:30.309Z,0
2017-12-12T02:41:40.251Z,0
2017-12-12T02:42:49.685Z,0
2017-12-12T02:43:59.633Z,0
2017-12-12T02:45:09.062Z,0
2017-12-12T02:46:18.777Z,0
2017-12-12T02:47:28.729Z,0
2017-12-12T02:48:38.415Z,0
2017-12-12T02:49:48.107Z,0
2017-12-12T02:50:57.530Z,0
2017-12-12T02:52:07.500Z,0
2017-12-12T02:53:17.196Z,0
2017-12-12T02:54:27.146Z,0
2017-12-12T02:55:36.844Z,0
2017-12-12T02:56:46.786Z,0
2017-12-12T02:57:56.496Z,0
2017-12-12T02:59:06.438Z,0
2017-12-12T03:00:16.132Z,0
2017-12-12T03:01:25.811Z,0
2017-12-12T03:02:35.751Z,0
2017-12-12T03:03:45.435Z,0
2017-12-12T03:04:55.384Z,0
2017-12-12T03:06:05.073Z,0
2017-12-12T03:07:14.785Z,0
2017-12-12T03:08:24.463Z,0
2017-12-12T03:09:34.403Z,0
2017-12-12T03:10:43.828Z,0
2017-12-12T03:11:53.814Z,0
2017-12-12T03:13:03.502Z,0
2017-12-12T03:14:13.198Z,0
2017-12-12T03:15:23.138Z,0
2017-12-12T03:16:32.580Z,0
2017-12-12T03:17:42.529Z,0
2017-12-12T03:18:51.962Z,0
2017-12-12T03:20:01.396Z,0
2017-12-12T03:21:11.390Z,0
2017-12-12T03:22:21.332Z,0
2017-12-12T03:23:31.019Z,0
2017-12-12T03:24:40.970Z,0
2017-12-12T03:25:50.407Z,0
2017-12-12T03:26:59.828Z,0
2017-12-12T03:28:09.006Z,0
2017-12-12T03:29:18.690Z,0
2017-12-12T03:30:28.637Z,0
2017-12-12T03:31:38.328Z,0
2017-12-12T03:32:47.754Z,0
2017-12-12T03:33:57.441Z,0
2017-12-12T03:35:07.133Z,0
2017-12-12T03:36:16.823Z,0
2017-12-12T03:37:26.505Z,0
2017-12-12T03:38:36.193Z,0
2017-12-12T03:39:45.886Z,0
2017-12-12T03:40:55.572Z,0
2017-12-12T03:42:05.520Z,0
2017-12-12T03:43:15.465Z,0
2017-12-12T03:44:25.473Z,0
2017-12-12T03:45:34.901Z,0
2017-12-12T03:46:44.605Z,0
2017-12-12T03:47:54.298Z,0
2017-12-12T03:49:04.231Z,0
2017-12-12T03:50:14.178Z,0
2017-12-12T03:51:24.120Z,0
2017-12-12T03:52:33.797Z,0
2017-12-12T03:53:43.222Z,0
2017-12-12T03:54:52.648Z,0
2017-12-12T03:56:02.330Z,0
2017-12-12T03:57:12.014Z,0
2017-12-12T03:58:21.715Z,0
2017-12-12T03:59:31.152Z,0
2017-12-12T04:00:40.844Z,0
2017-12-12T04:01:50.325Z,0
2017-12-12T04:03:00.014Z,0
2017-12-12T04:04:09.712Z,0
2017-12-12T04:05:19.665Z,0
2017-12-12T04:06:29.093Z,0
2017-12-12T04:07:39.086Z,0
2017-12-12T04:08:48.523Z,0
2017-12-12T04:09:58.461Z,0
2017-12-12T04:11:08.143Z,0
2017-12-12T04:12:17.895Z,0
2017-12-12T04:13:27.856Z,0
2017-12-12T04:14:37.808Z,0
2017-12-12T04:15:47.497Z,0
2017-12-12T04:16:56.928Z,0
2017-12-12T04:18:06.871Z,0
2017-12-12T04:19:16.814Z,0
2017-12-12T04:20:26.235Z,0
2017-12-12T04:21:35.914Z,0
2017-12-12T04:22:45.344Z,0
2017-12-12T04:23:55.031Z,0
2017-12-12T04:25:04.997Z,0
2017-12-12T04:26:14.996Z,0
2017-12-12T04:27:24.427Z,0
2017-12-12T04:28:34.414Z,0
2017-12-12T04:29:44.097Z,0
2017-12-12T04:30:54.069Z,0
2017-12-12T04:32:03.784Z,0
2017-12-12T04:33:13.478Z,0
2017-12-12T04:34:22.927Z,0
2017-12-12T04:35:32.884Z,0
2017-12-12T04:36:42.576Z,0
2017-12-12T04:37:52.531Z,0
2017-12-12T04:39:02.223Z,0
2017-12-12T04:40:11.906Z,0
2017-12-12T04:41:21.846Z,0
2017-12-12T04:42:31.525Z,0
2017-12-12T04:43:41.227Z,0
2017-12-12T04:44:50.914Z,0
2017-12-12T04:46:00.603Z,0
2017-12-12T04:47:10.559Z,0
2017-12-12T04:48:20.259Z,0
2017-12-12T04:49:29.951Z,0
2017-12-12T04:50:39.913Z,0
2017-12-12T04:51:49.869Z,0
2017-12-12T04:52:59.850Z,0
2017-12-12T04:54:09.283Z,0
2017-12-12T04:55:19.218Z,0
2017-12-12T04:56:28.910Z,0
2017-12-12T04:57:38.607Z,0
2017-12-12T04:58:48.310Z,0
2017-12-12T04:59:57.495Z,0
2017-12-12T05:01:07.450Z,0
2017-12-12T05:02:17.397Z,0
2017-12-12T05:03:26.861Z,0
2017-12-12T05:04:36.822Z,0
2017-12-12T05:05:46.768Z,0
2017-12-12T05:06:56.191Z,0
2017-12-12T05:08:05.631Z,0
2017-12-12T05:09:15.313Z,0
2017-12-12T05:10:25.005Z,0
2017-12-12T05:11:34.703Z,0
2017-12-12T05:12:44.659Z,0
2017-12-12T05:13:54.346Z,0
2017-12-12T05:15:04.029Z,0
2017-12-12T05:16:13.478Z,0
2017-12-12T05:17:23.433Z,0
2017-12-12T05:18:32.880Z,0
2017-12-12T05:19:42.562Z,0
2017-12-12T05:20:52.501Z,0
2017-12-12T05:22:02.448Z,0
2017-12-12T05:23:13.040Z,0
2017-12-12T05:24:22.474Z,0
2017-12-12T05:25:32.494Z,0
2017-12-12T05:26:42.247Z,0
2017-12-12T05:27:51.418Z,0
2017-12-12T05:29:01.112Z,0
2017-12-12T05:30:10.544Z,0
2017-12-12T05:31:20.259Z,0
2017-12-12T05:32:30.234Z,0
2017-12-12T05:33:39.936Z,0
2017-12-12T05:34:49.895Z,0
2017-12-12T05:35:59.670Z,0
2017-12-12T05:37:09.622Z,0
2017-12-12T05:38:19.582Z,0
2017-12-12T05:39:29.542Z,0
2017-12-12T05:40:39.238Z,0
2017-12-12T05:41:48.414Z,0
2017-12-12T05:42:58.362Z,0
2017-12-12T05:44:08.311Z,0
2017-12-12T05:45:17.998Z,0
2017-12-12T05:46:27.940Z,0
2017-12-12T05:47:37.632Z,0
2017-12-12T05:48:47.377Z,0
2017-12-12T05:49:57.324Z,0
2017-12-12T05:51:07.281Z,0
2017-12-12T05:52:16.711Z,0
2017-12-12T05:53:26.655Z,0
2017-12-12T05:54:36.366Z,0
2017-12-12T05:55:46.054Z,0
2017-12-12T05:56:55.489Z,0
2017-12-12T05:58:04.928Z,0
2017-12-12T05:59:14.618Z,0
2017-12-12T06:00:24.309Z,0
2017-12-12T06:01:34.260Z,0
2017-12-12T06:02:44.205Z,0
2017-12-12T06:03:54.198Z,0
2017-12-12T06:05:03.941Z,0
2017-12-12T06:06:13.116Z,0
2017-12-12T06:07:23.089Z,0
2017-12-12T06:08:33.030Z,0
2017-12-12T06:09:42.978Z,0
2017-12-12T06:10:52.668Z,0
2017-12-12T06:12:02.365Z,0
2017-12-12T06:13:12.063Z,0
2017-12-12T06:14:21.490Z,0
2017-12-12T06:15:30.915Z,0
2017-12-12T06:16:40.885Z,0
2017-12-12T06:17:50.838Z,0
2017-12-12T06:19:00.791Z,0
2017-12-12T06:20:10.764Z,0
2017-12-12T06:21:20.765Z,0
2017-12-12T06:22:30.495Z,0
2017-12-12T06:23:40.229Z,0
2017-12-12T06:24:49.943Z,0
2017-12-12T06:25:59.636Z,0
2017-12-12T06:27:09.317Z,0
2017-12-12T06:28:18.744Z,0
2017-12-12T06:29:28.685Z,0
2017-12-12T06:30:38.369Z,0
2017-12-12T06:31:48.045Z,0
2017-12-12T06:32:57.486Z,0
2017-12-12T06:34:07.185Z,0
2017-12-12T06:35:17.144Z,0
2017-12-12T06:36:26.845Z,0
2017-12-12T06:37:36.555Z,0
2017-12-12T06:38:46.245Z,0
2017-12-12T06:39:55.937Z,0
2017-12-12T06:41:05.652Z,0
2017-12-12T06:42:15.616Z,0
2017-12-12T06:43:25.582Z,0
2017-12-12T06:44:35.042Z,0
2017-12-12T06:45:45.053Z,0
2017-12-12T06:46:54.757Z,0
2017-12-12T06:48:04.525Z,0
2017-12-12T06:49:13.983Z,0
2017-12-12T06:50:23.713Z,0
2017-12-12T06:51:33.658Z,0
2017-12-12T06:52:43.094Z,0
2017-12-12T06:53:52.793Z,0
2017-12-12T06:55:02.737Z,0
2017-12-12T06:56:12.181Z,0
2017-12-12T06:57:21.606Z,0
2017-12-12T06:58:31.572Z,0
2017-12-12T06:59:41.255Z,0
2017-12-12T07:00:51.207Z,0
2017-12-12T07:02:00.990Z,0
2017-12-12T07:03:10.683Z,0
2017-12-12T07:04:20.387Z,0
2017-12-12T07:05:29.823Z,0
2017-12-12T07:06:39.254Z,0
2017-12-12T07:07:48.172Z,0
2017-12-12T07:08:58.133Z,0
2017-12-12T07:10:08.077Z,0
2017-12-12T07:11:17.503Z,0
2017-12-12T07:12:27.214Z,0
2017-12-12T07:13:36.896Z,0
2017-12-12T07:14:46.078Z,0
2017-12-12T07:15:55.284Z,0
2017-12-12T07:17:04.718Z,0
2017-12-12T07:18:14.411Z,0
2017-12-12T07:19:24.114Z,0
2017-12-12T07:20:34.075Z,5
2017-12-12T07:21:44.039Z,5
2017-12-12T07:22:53.747Z,5
2017-12-12T07:24:03.192Z,5
2017-12-12T07:25:12.897Z,5
2017-12-12T07:26:22.672Z,5
2017-12-12T07:27:32.630Z,5
2017-12-12T07:28:42.584Z,5
2017-12-12T07:29:52.283Z,5
2017-12-12T07:31:01.706Z,10
2017-12-12T07:32:11.401Z,10
2017-12-12T07:33:21.095Z,10
2017-12-12T07:34:30.797Z,10
2017-12-12T07:35:40.488Z,15
2017-12-12T07:36:50.427Z,15
2017-12-12T07:38:00.363Z,15
2017-12-12T07:39:10.329Z,15
2017-12-12T07:40:20.033Z,15
2017-12-12T07:41:29.710Z,15
2017-12-12T07:42:39.169Z,15
2017-12-12T07:43:48.863Z,15
2017-12-12T07:44:58.852Z,20
2017-12-12T07:46:08.549Z,20
2017-12-12T07:47:17.986Z,20
2017-12-12T07:48:27.939Z,20
2017-12-12T07:49:37.633Z,20
2017-12-12T07:50:47.070Z,25
2017-12-12T07:51:57.258Z,25
2017-12-12T07:53:06.705Z,25
2017-12-12T07:54:16.658Z,30
2017-12-12T07:55:26.354Z,30
2017-12-12T07:56:36.303Z,35
2017-12-12T07:57:46.263Z,35
2017-12-12T07:58:55.945Z,35
2017-12-12T08:00:05.920Z,35
2017-12-12T08:01:15.825Z,35
2017-12-12T08:02:25.547Z,40
2017-12-12T08:03:35.518Z,40
2017-12-12T08:04:45.219Z,40
2017-12-12T08:05:54.921Z,45
2017-12-12T08:07:04.949Z,50
2017-12-12T08:08:14.669Z,50
2017-12-12T08:09:24.639Z,55
2017-12-12T08:10:34.088Z,60
2017-12-12T08:11:43.800Z,60
2017-12-12T08:12:53.774Z,60
2017-12-12T08:14:03.496Z,60
2017-12-12T08:15:13.198Z,55
2017-12-12T08:16:23.147Z,50
2017-12-12T08:17:32.848Z,55
2017-12-12T08:18:42.571Z,50
2017-12-12T08:19:52.548Z,40
2017-12-12T08:21:02.517Z,40
2017-12-12T08:22:12.498Z,45
2017-12-12T08:23:22.449Z,50
2017-12-12T08:24:32.440Z,40
2017-12-12T08:25:42.162Z,30
2017-12-12T08:26:52.132Z,30
2017-12-12T08:28:01.840Z,30
2017-12-12T08:29:11.802Z,25
2017-12-12T08:30:21.247Z,30
2017-12-12T08:31:31.219Z,30
2017-12-12T08:32:41.192Z,30
2017-12-12T08:33:50.959Z,25
2017-12-12T08:35:00.907Z,25
2017-12-12T08:36:10.885Z,25
2017-12-12T08:37:20.854Z,25
2017-12-12T08:38:30.272Z,20
2017-12-12T08:39:40.297Z,25
2017-12-12T08:40:50.247Z,35
2017-12-12T08:41:59.964Z,40
2017-12-12T08:43:09.911Z,65
2017-12-12T08:44:19.627Z,80
2017-12-12T08:45:29.322Z,60
2017-12-12T08:46:39.532Z,65
2017-12-12T08:47:49.233Z,70
2017-12-12T08:48:58.955Z,75
2017-12-12T08:50:08.942Z,75
2017-12-12T08:51:18.658Z,75
2017-12-12T08:52:28.666Z,75
2017-12-12T08:53:38.487Z,75
2017-12-12T08:54:48.005Z,80
2017-12-12T08:55:57.768Z,80
2017-12-12T08:57:07.714Z,85
2017-12-12T08:58:17.406Z,85
2017-12-12T08:59:27.355Z,95
2017-12-12T09:00:37.356Z,85
2017-12-12T09:01:47.058Z,95
2017-12-12T09:02:57.016Z,95
2017-12-12T09:04:06.850Z,95
2017-12-12T09:05:16.292Z,90
2017-12-12T09:06:26.238Z,85
2017-12-12T09:07:36.241Z,90
2017-12-12T09:08:46.233Z,90
2017-12-12T09:09:55.931Z,85
2017-12-12T09:11:05.645Z,80
2017-12-12T09:12:15.599Z,80
2017-12-12T09:13:25.548Z,90
2017-12-12T09:14:35.274Z,95
2017-12-12T09:15:44.953Z,100
2017-12-12T09:16:54.900Z,100
2017-12-12T09:18:04.610Z,105
2017-12-12T09:19:14.051Z,115
2017-12-12T09:20:23.749Z,100
2017-12-12T09:21:33.194Z,95
2017-12-12T09:22:43.147Z,100
2017-12-12T09:23:53.108Z,100
2017-12-12T09:25:02.833Z,95
2017-12-12T09:26:12.797Z,90
2017-12-12T09:27:22.545Z,80
2017-12-12T09:28:32.513Z,75
2017-12-12T09:29:41.960Z,75
2017-12-12T09:30:51.932Z,75
2017-12-12T09:32:01.898Z,70
2017-12-12T09:33:11.855Z,75
2017-12-12T09:34:21.815Z,75
2017-12-12T09:35:35.993Z,85
2017-12-12T09:36:45.951Z,90
2017-12-12T09:37:55.399Z,95
2017-12-12T09:39:04.843Z,110
2017-12-12T09:40:14.858Z,115
2017-12-12T09:41:24.823Z,125
2017-12-12T09:42:34.509Z,125
2017-12-12T09:43:44.426Z,135
2017-12-12T09:44:54.151Z,130
2017-12-12T09:46:03.852Z,150
2017-12-12T09:47:13.835Z,155
2017-12-12T09:48:23.831Z,185
2017-12-12T09:49:33.787Z,185
2017-12-12T09:50:43.736Z,170
2017-12-12T09:51:53.436Z,195
2017-12-12T09:53:03.441Z,160
2017-12-12T09:54:13.166Z,180
2017-12-12T09:55:23.157Z,135
2017-12-12T09:56:32.858Z,150
2017-12-12T09:57:42.575Z,125
2017-12-12T09:58:52.535Z,115
2017-12-12T10:00:02.245Z,100
2017-12-12T10:01:12.242Z,90
2017-12-12T10:02:22.195Z,100
2017-12-12T10:03:32.161Z,80
2017-12-12T10:04:41.611Z,75
2017-12-12T10:05:51.326Z,70
2017-12-12T10:07:00.770Z,70
2017-12-12T10:08:10.490Z,70
2017-12-12T10:09:20.467Z,80
2017-12-12T10:10:30.171Z,80
2017-12-12T10:11:39.617Z,85
2017-12-12T10:12:49.577Z,75
2017-12-12T10:13:59.548Z,70
2017-12-12T10:15:09.496Z,65
2017-12-12T10:16:19.454Z,70
2017-12-12T10:17:28.631Z,70
2017-12-12T10:18:38.334Z,80
2017-12-12T10:19:48.103Z,95
2017-12-12T10:20:57.527Z,110
2017-12-12T10:22:06.957Z,120
2017-12-12T10:23:16.636Z,110
2017-12-12T10:24:26.581Z,100
2017-12-12T10:25:36.529Z,105
2017-12-12T10:26:46.209Z,80
2017-12-12T10:27:55.909Z,90
2017-12-12T10:29:05.342Z,85
2017-12-12T10:30:15.600Z,65
2017-12-12T10:31:25.296Z,75
2017-12-12T10:32:35.266Z,70
2017-12-12T10:33:45.334Z,60
2017-12-12T10:34:55.028Z,65
2017-12-12T10:36:04.479Z,75
2017-12-12T10:37:14.177Z,65
2017-12-12T10:38:23.968Z,65
2017-12-12T10:39:33.949Z,55
2017-12-12T10:40:43.908Z,60
2017-12-12T10:41:53.880Z,45
2017-12-12T10:43:03.851Z,50
2017-12-12T10:44:13.775Z,50
2017-12-12T10:45:23.210Z,55
2017-12-12T10:46:33.044Z,55
2017-12-12T10:47:42.991Z,65
2017-12-12T10:48:52.962Z,70
2017-12-12T10:50:02.688Z,80
2017-12-12T10:51:12.415Z,95
2017-12-12T10:52:22.384Z,110
2017-12-12T10:53:32.400Z,80
2017-12-12T10:54:42.425Z,90
2017-12-12T10:55:52.145Z,80
2017-12-12T10:57:01.837Z,105
2017-12-12T10:58:11.796Z,90
2017-12-12T10:59:21.779Z,75
2017-12-12T11:00:31.238Z,100
2017-12-12T11:01:40.667Z,105
2017-12-12T11:02:50.399Z,85
2017-12-12T11:04:00.414Z,80
2017-12-12T11:05:09.861Z,80
2017-12-12T11:06:19.596Z,95
2017-12-12T11:07:29.037Z,85
2017-12-12T11:08:39.001Z,90
2017-12-12T11:09:48.966Z,75
2017-12-12T11:10:58.440Z,90
2017-12-12T11:12:07.883Z,90
2017-12-12T11:13:17.903Z,80
2017-12-12T11:14:27.596Z,85
2017-12-12T11:15:37.661Z,85
2017-12-12T11:16:47.098Z,85
2017-12-12T11:17:57.041Z,105
2017-12-12T11:19:06.757Z,115
2017-12-12T11:20:16.462Z,140
2017-12-12T11:21:26.441Z,145
2017-12-12T11:22:36.196Z,120
2017-12-12T11:23:45.927Z,135
2017-12-12T11:24:55.411Z,140
2017-12-12T11:26:05.361Z,110
2017-12-12T11:27:15.319Z,145
2017-12-12T11:28:25.042Z,115
2017-12-12T11:29:34.740Z,125
2017-12-12T11:30:44.476Z,155
2017-12-12T11:31:54.180Z,130
2017-12-12T11:33:03.817Z,140
2017-12-12T11:34:13.482Z,140
2017-12-12T11:35:23.200Z,155
2017-12-12T11:36:32.676Z,165
2017-12-12T11:37:42.443Z,180
2017-12-12T11:38:52.393Z,170
2017-12-12T11:40:02.093Z,205
2017-12-12T11:41:11.801Z,175
2017-12-12T11:42:21.508Z,155
2017-12-12T11:43:31.226Z,165
2017-12-12T11:44:40.942Z,135
2017-12-12T11:45:51.124Z,170
2017-12-12T11:47:01.083Z,185
2017-12-12T11:48:10.259Z,150
2017-12-12T11:49:19.533Z,145
2017-12-12T11:50:29.303Z,115
2017-12-12T11:51:39.262Z,105
2017-12-12T11:52:48.994Z,85
2017-12-12T11:53:58.705Z,95
2017-12-12T11:55:08.135Z,105
2017-12-12T11:56:17.573Z,80
2017-12-12T11:57:27.259Z,75
2017-12-12T11:58:37.214Z,90
2017-12-12T11:59:46.664Z,105
2017-12-12T12:00:56.626Z,85
2017-12-12T12:02:06.645Z,110
2017-12-12T12:03:16.598Z,95
2017-12-12T12:04:26.046Z,105
2017-12-12T12:05:36.097Z,105
2017-12-12T12:06:46.037Z,95
2017-12-12T12:07:55.738Z,110
2017-12-12T12:09:05.435Z,90
2017-12-12T12:10:15.205Z,80
2017-12-12T12:11:25.162Z,105
2017-12-12T12:12:35.158Z,110
2017-12-12T12:13:44.854Z,120
2017-12-12T12:14:54.306Z,115
2017-12-12T12:16:03.773Z,115
2017-12-12T12:17:13.463Z,120
2017-12-12T12:18:23.164Z,125
2017-12-12T12:19:33.098Z,130
2017-12-12T12:20:42.795Z,130
2017-12-12T12:21:52.759Z,115
2017-12-12T12:23:02.186Z,120
2017-12-12T12:24:12.137Z,140
2017-12-12T12:25:22.099Z,160
2017-12-12T12:26:31.785Z,135
2017-12-12T12:27:41.748Z,140
2017-12-12T12:28:51.180Z,120
2017-12-12T12:30:01.140Z,120
2017-12-12T12:31:11.117Z,170
2017-12-12T12:32:21.064Z,165
2017-12-12T12:33:30.493Z,140
2017-12-12T12:34:40.194Z,150
2017-12-12T12:35:49.376Z,150
2017-12-12T12:36:59.311Z,125
2017-12-12T12:38:09.011Z,115
2017-12-12T12:39:18.974Z,125
2017-12-12T12:40:28.941Z,135
2017-12-12T12:41:38.632Z,130
2017-12-12T12:42:48.072Z,120
2017-12-12T12:43:57.770Z,130
2017-12-12T12:45:07.455Z,135
2017-12-12T12:46:17.152Z,145
2017-12-12T12:47:27.095Z,130
2017-12-12T12:48:36.795Z,170
2017-12-12T12:49:46.762Z,165
2017-12-12T12:50:56.469Z,130
2017-12-12T12:52:13.930Z,130
2017-12-12T12:53:23.366Z,125
2017-12-12T12:54:33.107Z,110
2017-12-12T12:55:43.049Z,110
2017-12-12T12:56:53.037Z,110
2017-12-12T12:58:02.729Z,80
2017-12-12T12:59:12.703Z,65
2017-12-12T13:00:22.451Z,70
2017-12-12T13:01:32.150Z,80
2017-12-12T13:02:42.113Z,75
2017-12-12T13:03:51.556Z,85
2017-12-12T13:05:00.976Z,80
2017-12-12T13:06:10.932Z,70
2017-12-12T13:07:20.622Z,70
2017-12-12T13:08:30.568Z,75
2017-12-12T13:09:40.525Z,65
2017-12-12T13:10:50.273Z,60
2017-12-12T13:11:59.706Z,50
2017-12-12T13:13:08.940Z,45
2017-12-12T13:14:18.921Z,35
2017-12-12T13:15:28.945Z,40
2017-12-12T13:16:38.639Z,35
2017-12-12T13:17:48.338Z,35
2017-12-12T13:18:58.034Z,35
2017-12-12T13:20:07.991Z,35
2017-12-12T13:21:17.675Z,35
2017-12-12T13:22:27.389Z,30
2017-12-12T13:23:37.093Z,30
2017-12-12T13:24:47.064Z,25
2017-12-12T13:25:56.805Z,25
2017-12-12T13:27:07.017Z,20
2017-12-12T13:28:16.715Z,15
2017-12-12T13:29:26.408Z,10
2017-12-12T13:30:35.853Z,15
2017-12-12T13:31:45.900Z,15
2017-12-12T13:32:55.602Z,15
2017-12-12T13:34:05.560Z,10
2017-12-12T13:35:14.997Z,10
2017-12-12T13:36:24.967Z,10
2017-12-12T13:37:34.648Z,10
2017-12-12T13:38:44.371Z,10
2017-12-12T13:39:54.375Z,10
2017-12-12T13:41:04.098Z,10
2017-12-12T13:42:14.063Z,10
2017-12-12T13:43:23.494Z,10
2017-12-12T13:44:33.212Z,10
2017-12-12T13:45:42.707Z,10
2017-12-12T13:46:52.680Z,10
2017-12-12T13:48:02.646Z,10
2017-12-12T13:49:12.339Z,10
2017-12-12T13:50:21.531Z,10
2017-12-12T13:51:31.489Z,5
2017-12-12T13:52:41.189Z,5
2017-12-12T13:53:50.609Z,10
2017-12-12T13:55:00.619Z,10
2017-12-12T13:56:10.590Z,10
2017-12-12T13:57:20.054Z,10
2017-12-12T13:58:29.776Z,15
2017-12-12T13:59:39.487Z,15
2017-12-12T14:00:49.685Z,10
2017-12-12T14:01:59.644Z,10
2017-12-12T14:03:09.604Z,10
2017-12-12T14:04:19.574Z,10
2017-12-12T14:05:29.531Z,10
2017-12-12T14:06:39.496Z,10
2017-12-12T14:07:49.209Z,10
2017-12-12T14:08:58.912Z,10
2017-12-12T14:10:08.882Z,10
2017-12-12T14:11:18.583Z,10
2017-12-12T14:12:28.293Z,15
2017-12-12T14:13:37.997Z,15
2017-12-12T14:14:47.966Z,10
2017-12-12T14:15:57.405Z,10
2017-12-12T14:17:07.098Z,5
2017-12-12T14:18:17.069Z,5
2017-12-12T14:19:27.031Z,5
2017-12-12T14:20:36.969Z,5
2017-12-12T14:21:46.663Z,5
2017-12-12T14:22:56.631Z,5
2017-12-12T14:24:06.600Z,5
2017-12-12T14:25:16.579Z,5
2017-12-12T14:26:26.279Z,5
2017-12-12T14:27:36.491Z,5
2017-12-12T14:28:45.939Z,5
2017-12-12T14:29:55.653Z,10
2017-12-12T14:31:05.360Z,5
2017-12-12T14:32:15.085Z,5
2017-12-12T14:33:24.782Z,10
2017-12-12T14:34:34.490Z,10
2017-12-12T14:35:44.222Z,10
2017-12-12T14:36:54.246Z,10
2017-12-12T14:38:03.711Z,5
2017-12-12T14:39:12.894Z,5
2017-12-12T14:40:22.586Z,5
2017-12-12T14:41:32.541Z,5
2017-12-12T14:42:42.497Z,5
2017-12-12T14:43:52.468Z,0
2017-12-12T14:45:02.168Z,0
2017-12-12T14:46:12.139Z,0
2017-12-12T14:47:21.849Z,0
2017-12-12T14:48:31.794Z,0
2017-12-12T14:49:41.536Z,0
2017-12-12T14:50:51.491Z,0
2017-12-12T14:52:00.929Z,0
2017-12-12T14:53:10.404Z,0
2017-12-12T14:54:20.104Z,0
2017-12-12T14:55:29.273Z,0
2017-12-12T14:56:39.022Z,0
2017-12-12T14:57:48.716Z,0
2017-12-12T14:58:58.717Z,0
2017-12-12T15:00:08.670Z,0
2017-12-12T15:01:18.624Z,0
2017-12-12T15:02:28.574Z,0
2017-12-12T15:03:38.001Z,0
2017-12-12T15:04:47.419Z,0
2017-12-12T15:05:57.117Z,0
2017-12-12T15:07:07.053Z,0
2017-12-12T15:08:16.494Z,0
2017-12-12T15:09:26.195Z,0
2017-12-12T15:10:36.158Z,0
2017-12-12T15:11:45.859Z,0
2017-12-12T15:12:55.813Z,0
2017-12-12T15:14:05.561Z,0
2017-12-12T15:15:15.521Z,0
2017-12-12T15:16:25.212Z,0
2017-12-12T15:17:35.170Z,0
2017-12-12T15:18:44.859Z,0
2017-12-12T15:19:54.308Z,0
2017-12-12T15:21:04.276Z,0
2017-12-12T15:22:14.226Z,0
2017-12-12T15:23:23.937Z,0
2017-12-12T15:24:33.433Z,0
2017-12-12T15:25:43.375Z,0
2017-12-12T15:26:53.332Z,0
2017-12-12T15:28:03.029Z,0
2017-12-12T15:29:12.991Z,0
2017-12-12T15:30:22.957Z,0
2017-12-12T15:31:32.654Z,0
2017-12-12T15:32:42.095Z,0
2017-12-12T15:33:52.039Z,0
2017-12-12T15:35:01.484Z,0
2017-12-12T15:36:11.512Z,0
2017-12-12T15:37:21.219Z,0
2017-12-12T15:38:30.925Z,0
2017-12-12T15:39:40.894Z,0
2017-12-12T15:40:50.332Z,0
2017-12-12T15:42:00.080Z,0
2017-12-12T15:43:10.022Z,0
2017-12-12T15:44:20.015Z,0
2017-12-12T15:45:29.715Z,0
2017-12-12T15:46:39.663Z,0
2017-12-12T15:47:49.389Z,0
2017-12-12T15:48:59.091Z,0
2017-12-12T15:50:08.912Z,0
2017-12-12T15:51:19.110Z,0
2017-12-12T15:52:28.812Z,0
2017-12-12T15:53:38.509Z,0
2017-12-12T15:54:48.505Z,0
2017-12-12T15:55:57.687Z,0
2017-12-12T15:57:07.376Z,0
2017-12-12T15:58:17.080Z,0
2017-12-12T15:59:26.780Z,0
2017-12-12T16:00:36.470Z,0
2017-12-12T16:01:46.162Z,0
2017-12-12T16:02:56.127Z,0
2017-12-12T16:04:06.105Z,0
2017-12-12T16:05:16.066Z,0
2017-12-12T16:06:25.782Z,0
2017-12-12T16:07:34.718Z,0
2017-12-12T16:08:44.439Z,0
2017-12-12T16:09:54.134Z,0
2017-12-12T16:11:03.816Z,0
2017-12-12T16:12:13.261Z,0
2017-12-12T16:13:23.232Z,0
2017-12-12T16:14:33.174Z,0
2017-12-12T16:15:42.940Z,0
2017-12-12T16:16:52.897Z,0
2017-12-12T16:18:02.601Z,0
2017-12-12T16:19:12.317Z,0
2017-12-12T16:20:21.758Z,0
2017-12-12T16:21:31.457Z,0
2017-12-12T16:22:41.402Z,0
2017-12-12T16:23:50.958Z,0
2017-12-12T16:25:00.662Z,0
2017-12-12T16:26:10.610Z,0
2017-12-12T16:27:20.588Z,0
2017-12-12T16:28:29.504Z,0
2017-12-12T16:29:39.197Z,0
2017-12-12T16:30:48.891Z,0
2017-12-12T16:31:58.594Z,0
2017-12-12T16:33:08.274Z,0
2017-12-12T16:34:17.988Z,0
2017-12-12T16:35:27.932Z,0
2017-12-12T16:36:37.622Z,0
2017-12-12T16:37:47.311Z,0
2017-12-12T16:38:57.308Z,0
2017-12-12T16:40:06.759Z,0
2017-12-12T16:41:16.722Z,0
2017-12-12T16:42:26.675Z,0
2017-12-12T16:43:36.633Z,0
2017-12-12T16:44:46.703Z,0
2017-12-12T16:45:56.416Z,0
2017-12-12T16:47:06.389Z,0
2017-12-12T16:48:16.359Z,0
2017-12-12T16:49:25.551Z,0
2017-12-12T16:50:35.518Z,0
2017-12-12T16:51:45.468Z,0